Terminal Aerodrome Forecast
Issued by NWS

Home | Current Version | Previous Version | Text Only | Print | Product List | Glossary On
Versions: 1 2 3 4 5 6 7 8 9 10 11 12 13 14 15 16 17 18 19 20 21 22 23 24 25 26 27 28 29 30 31 32 33 34 35
000
FTUS41 KBOX 281121
TAFACK
TAF
KACK 281121Z 2812/2912 01020G30KT P6SM OVC025
     FM281700 36018G27KT P6SM BKN035
     FM281900 35015KT P6SM SCT045
     FM282300 30014KT P6SM SCT050
     FM290200 30012KT P6SM BKN050=

USA.gov is the U.S. government's official web portal to all federal, state and local government web resources and services.